createdAt,value
2023-05-15T00:01:22.306Z,12.64
2023-05-15T00:04:07.273Z,12.69
2023-05-15T00:06:53.577Z,12.73
2023-05-15T00:09:39.051Z,12.76
2023-05-15T00:12:24.564Z,12.80
2023-05-15T00:15:10.268Z,12.78
2023-05-15T00:17:55.780Z,12.74
2023-05-15T00:20:41.579Z,12.76
2023-05-15T00:23:26.865Z,12.75
2023-05-15T00:26:15.680Z,12.73
2023-05-15T00:29:01.093Z,12.72
2023-05-15T00:31:46.440Z,12.67
2023-05-15T00:34:31.785Z,12.68
2023-05-15T00:37:17.033Z,12.62
2023-05-15T00:40:02.444Z,12.66
2023-05-15T00:42:48.856Z,12.67
2023-05-15T00:45:34.639Z,12.72
2023-05-15T00:48:22.688Z,12.73
2023-05-15T00:51:08.510Z,12.61
2023-05-15T00:53:54.938Z,12.62
2023-05-15T00:56:41.783Z,12.64
2023-05-15T00:59:28.805Z,12.63
2023-05-15T01:02:18.421Z,12.62
2023-05-15T01:05:04.296Z,12.60
2023-05-15T01:08:18.323Z,12.65
2023-05-15T01:11:05.694Z,12.65
2023-05-15T01:13:50.674Z,12.58
2023-05-15T01:16:36.545Z,12.53
2023-05-15T01:19:22.125Z,12.48
2023-05-15T01:22:30.684Z,12.47
2023-05-15T01:25:47.280Z,12.48
2023-05-15T01:28:38.170Z,12.52
2023-05-15T01:31:26.810Z,12.52
2023-05-15T01:34:12.828Z,12.59
2023-05-15T01:37:03.282Z,12.59
2023-05-15T01:39:53.268Z,12.61
2023-05-15T01:42:44.246Z,12.63
2023-05-15T01:45:32.389Z,12.62
2023-05-15T01:48:19.684Z,12.63
2023-05-15T01:51:07.824Z,12.60
2023-05-15T01:53:53.999Z,12.60
2023-05-15T01:56:41.314Z,12.61
2023-05-15T01:59:28.570Z,12.61
2023-05-15T02:02:15.324Z,12.62
2023-05-15T02:05:01.572Z,12.60
2023-05-15T02:07:48.428Z,12.57
2023-05-15T02:10:34.077Z,12.55
2023-05-15T02:13:20.158Z,12.59
2023-05-15T02:16:05.751Z,12.63
2023-05-15T02:18:52.721Z,12.63
2023-05-15T02:21:38.044Z,12.67
2023-05-15T02:24:23.465Z,12.63
2023-05-15T02:27:17.249Z,12.57
2023-05-15T02:30:11.253Z,12.54
2023-05-15T02:33:12.654Z,12.40
2023-05-15T02:36:09.450Z,12.45
2023-05-15T02:38:56.661Z,12.50
2023-05-15T02:41:42.390Z,12.41
2023-05-15T02:44:28.871Z,12.32
2023-05-15T02:47:14.965Z,12.31
2023-05-15T02:50:00.701Z,12.27
2023-05-15T02:52:45.805Z,12.18
2023-05-15T02:55:31.607Z,12.22
2023-05-15T02:58:16.684Z,12.27
2023-05-15T03:01:02.058Z,12.25
2023-05-15T03:03:47.648Z,12.29
2023-05-15T03:06:33.104Z,12.35
2023-05-15T03:09:18.395Z,12.42
2023-05-15T03:12:04.088Z,12.42
2023-05-15T03:14:49.065Z,12.42
2023-05-15T03:17:34.507Z,12.37
2023-05-15T03:20:19.775Z,12.38
2023-05-15T03:23:05.085Z,12.36
2023-05-15T03:25:50.550Z,12.29
2023-05-15T03:28:35.750Z,12.15
2023-05-15T03:31:21.161Z,12.14
2023-05-15T03:34:06.524Z,12.12
2023-05-15T03:36:51.810Z,12.18
2023-05-15T03:39:37.128Z,12.21
2023-05-15T03:42:23.819Z,12.17
2023-05-15T03:45:09.639Z,12.17
2023-05-15T03:47:54.742Z,12.20
2023-05-15T03:50:40.370Z,12.27
2023-05-15T03:53:25.612Z,12.26
2023-05-15T03:56:10.864Z,12.23
2023-05-15T03:58:56.139Z,12.13
2023-05-15T04:01:55.318Z,12.10
2023-05-15T04:04:46.398Z,12.00
2023-05-15T04:07:36.102Z,11.99
2023-05-15T04:10:21.145Z,11.96
2023-05-15T04:13:06.276Z,12.00
2023-05-15T04:15:51.721Z,11.94
2023-05-15T04:18:37.087Z,11.90
2023-05-15T04:21:22.317Z,11.95
2023-05-15T04:24:08.041Z,11.98
2023-05-15T04:26:53.365Z,11.92
2023-05-15T04:29:38.694Z,11.87
2023-05-15T04:32:23.970Z,11.82
2023-05-15T04:35:10.676Z,11.84
2023-05-15T04:37:56.134Z,11.77
2023-05-15T04:40:41.301Z,11.73
2023-05-15T04:43:26.837Z,11.71
2023-05-15T04:46:12.196Z,11.69
2023-05-15T04:48:57.506Z,11.71
2023-05-15T04:51:42.874Z,11.73
2023-05-15T04:54:27.896Z,11.78
2023-05-15T04:57:13.250Z,11.85
2023-05-15T04:59:58.370Z,11.92
2023-05-15T05:02:44.181Z,11.98
2023-05-15T05:05:29.369Z,12.04
2023-05-15T05:08:14.609Z,12.08
2023-05-15T05:10:59.614Z,12.08
2023-05-15T05:13:44.993Z,12.08
2023-05-15T05:16:30.145Z,12.09
2023-05-15T05:19:15.386Z,12.14
2023-05-15T05:22:04.706Z,12.06
2023-05-15T05:24:50.161Z,12.03
2023-05-15T05:27:35.521Z,12.04
2023-05-15T05:30:22.336Z,12.08
2023-05-15T05:33:07.906Z,12.11
2023-05-15T05:35:53.647Z,12.11
2023-05-15T05:38:38.946Z,12.14
2023-05-15T05:41:24.179Z,12.21
2023-05-15T05:44:09.563Z,12.29
2023-05-15T05:46:54.916Z,12.31
2023-05-15T05:49:40.468Z,12.31
2023-05-15T05:52:25.644Z,12.30
2023-05-15T05:55:10.985Z,12.33
2023-05-15T05:57:56.364Z,12.40
2023-05-15T06:00:41.727Z,12.43
2023-05-15T06:03:27.502Z,12.41
2023-05-15T06:06:13.041Z,12.44
2023-05-15T06:08:58.445Z,12.50
2023-05-15T06:11:43.775Z,12.54
2023-05-15T06:14:29.043Z,12.57
2023-05-15T06:17:14.489Z,12.62
2023-05-15T06:19:59.663Z,12.55
2023-05-15T06:22:44.991Z,12.65
2023-05-15T06:25:30.776Z,12.75
2023-05-15T06:28:16.076Z,12.76
2023-05-15T06:31:01.620Z,12.73
2023-05-15T06:33:47.170Z,12.69
2023-05-15T06:36:32.231Z,12.72
2023-05-15T06:39:17.570Z,12.79
2023-05-15T06:42:03.065Z,12.84
2023-05-15T06:44:49.663Z,12.73
2023-05-15T06:47:34.632Z,12.73
2023-05-15T06:50:20.099Z,12.82
2023-05-15T06:53:05.379Z,12.85
2023-05-15T06:55:50.764Z,12.93
2023-05-15T06:58:36.305Z,12.92
2023-05-15T07:01:21.588Z,12.85
2023-05-15T07:04:07.193Z,12.87
2023-05-15T07:06:52.781Z,12.90
2023-05-15T07:09:38.192Z,12.94
2023-05-15T07:12:23.588Z,12.93
2023-05-15T07:15:09.271Z,12.94
2023-05-15T07:17:55.206Z,12.94
2023-05-15T07:20:40.610Z,12.91
2023-05-15T07:23:26.047Z,12.85
2023-05-15T07:26:16.955Z,12.90
2023-05-15T07:29:05.497Z,12.84
2023-05-15T07:31:50.955Z,12.80
2023-05-15T07:34:37.452Z,12.75
2023-05-15T07:37:23.833Z,12.83
2023-05-15T07:40:09.341Z,12.83
2023-05-15T07:42:54.401Z,12.84
2023-05-15T07:45:39.774Z,12.82
2023-05-15T07:48:25.058Z,12.85
2023-05-15T07:51:10.530Z,12.87
2023-05-15T07:53:55.836Z,12.88
2023-05-15T07:56:41.518Z,12.82
2023-05-15T07:59:27.234Z,12.82
2023-05-15T08:02:12.664Z,12.77
2023-05-15T08:04:57.925Z,12.70
2023-05-15T08:07:43.134Z,12.78
2023-05-15T08:10:28.500Z,12.85
2023-05-15T08:13:13.647Z,12.87
2023-05-15T08:15:59.061Z,12.83
2023-05-15T08:18:44.372Z,12.85
2023-05-15T08:21:29.738Z,12.84
2023-05-15T08:24:15.666Z,12.90
2023-05-15T08:27:01.085Z,12.93
2023-05-15T08:29:46.507Z,12.88
2023-05-15T08:32:31.806Z,12.93
2023-05-15T08:35:17.238Z,12.97
2023-05-15T08:38:03.197Z,12.96
2023-05-15T08:40:52.320Z,13.06
2023-05-15T08:43:39.285Z,13.10
2023-05-15T08:46:25.027Z,13.14
2023-05-15T08:49:42.019Z,13.19
2023-05-15T08:52:28.736Z,13.24
2023-05-15T08:55:17.414Z,13.28
2023-05-15T08:58:02.725Z,13.25
2023-05-15T09:00:49.557Z,13.26
2023-05-15T09:03:35.055Z,13.25
2023-05-15T09:06:21.040Z,13.21
2023-05-15T09:09:06.891Z,13.21
2023-05-15T09:11:52.730Z,13.22
2023-05-15T09:14:38.148Z,13.31
2023-05-15T09:17:23.488Z,13.43
2023-05-15T09:20:29.733Z,13.41
2023-05-15T09:23:33.421Z,13.47
2023-05-15T09:26:18.896Z,13.42
2023-05-15T09:29:04.554Z,13.47
2023-05-15T09:31:49.887Z,13.43
2023-05-15T09:34:37.139Z,13.46
2023-05-15T09:37:31.125Z,13.47
2023-05-15T09:40:19.066Z,13.52
2023-05-15T09:43:04.275Z,13.55
2023-05-15T09:45:49.416Z,13.54
2023-05-15T09:48:35.392Z,13.60
2023-05-15T09:51:21.285Z,13.58
2023-05-15T09:54:06.420Z,13.55
2023-05-15T09:56:51.742Z,13.60
2023-05-15T09:59:43.921Z,13.67
2023-05-15T10:02:34.664Z,13.73
2023-05-15T10:05:28.660Z,13.67
2023-05-15T10:08:28.379Z,13.61
2023-05-15T10:11:13.652Z,13.59
2023-05-15T10:13:59.684Z,13.59
2023-05-15T10:16:45.656Z,13.61
2023-05-15T10:19:31.122Z,13.68
2023-05-15T10:22:22.624Z,13.79
2023-05-15T10:25:35.403Z,13.77
2023-05-15T10:28:21.075Z,13.67
2023-05-15T10:31:07.350Z,13.54
2023-05-15T10:33:55.464Z,13.48
2023-05-15T10:36:43.072Z,13.49
2023-05-15T10:39:29.311Z,13.54
2023-05-15T10:42:15.329Z,13.56
2023-05-15T10:45:02.696Z,13.56
2023-05-15T10:47:48.329Z,13.56
2023-05-15T10:50:33.754Z,13.54
2023-05-15T10:53:20.298Z,13.58
2023-05-15T10:56:06.098Z,13.61
2023-05-15T10:58:52.263Z,13.51
2023-05-15T11:01:39.344Z,13.39
2023-05-15T11:04:26.790Z,13.48
2023-05-15T11:07:14.114Z,13.50
2023-05-15T11:09:59.052Z,13.46
2023-05-15T11:12:57.753Z,13.45
2023-05-15T11:15:47.462Z,13.55
2023-05-15T11:18:37.823Z,13.58
2023-05-15T11:21:23.266Z,13.62
2023-05-15T11:24:11.746Z,13.65
2023-05-15T11:27:04.923Z,13.65
2023-05-15T11:30:05.446Z,13.68
2023-05-15T11:32:56.045Z,13.74
2023-05-15T11:35:45.846Z,13.77
2023-05-15T11:38:38.698Z,13.87
2023-05-15T11:41:31.953Z,13.88
2023-05-15T11:44:24.383Z,13.83
2023-05-15T11:47:11.013Z,13.78
2023-05-15T11:49:56.143Z,13.77
2023-05-15T11:52:41.686Z,13.74
2023-05-15T11:55:27.295Z,13.75
2023-05-15T11:58:17.473Z,13.80
2023-05-15T12:01:02.723Z,13.87
2023-05-15T12:03:51.728Z,13.92
2023-05-15T12:06:37.153Z,13.92
2023-05-15T12:09:27.454Z,13.82
2023-05-15T12:12:14.482Z,13.81
2023-05-15T12:15:00.403Z,13.73
2023-05-15T12:17:46.355Z,13.65
2023-05-15T12:20:34.931Z,13.66
2023-05-15T12:23:23.291Z,13.71
2023-05-15T12:26:08.381Z,13.66
2023-05-15T12:28:54.546Z,13.64
2023-05-15T12:31:40.296Z,13.65
2023-05-15T12:34:26.158Z,13.75
2023-05-15T12:37:14.640Z,13.83
2023-05-15T12:40:12.844Z,13.90
2023-05-15T12:42:58.300Z,14.00
2023-05-15T12:45:43.856Z,14.02
2023-05-15T12:48:32.250Z,14.07
2023-05-15T12:51:18.034Z,14.13
2023-05-15T12:54:03.480Z,14.17
2023-05-15T12:56:48.851Z,14.14
2023-05-15T12:59:34.316Z,14.11
2023-05-15T13:02:21.239Z,14.12
2023-05-15T13:05:09.090Z,14.20
2023-05-15T13:07:54.806Z,14.29
2023-05-15T13:10:40.318Z,14.35
2023-05-15T13:13:43.915Z,14.40
2023-05-15T13:16:29.804Z,14.46
2023-05-15T13:19:16.135Z,14.49
2023-05-15T13:22:01.379Z,14.50
2023-05-15T13:24:47.034Z,14.45
2023-05-15T13:27:32.284Z,14.51
2023-05-15T13:30:18.302Z,14.57
2023-05-15T13:33:03.967Z,14.59
2023-05-15T13:35:49.483Z,14.64
2023-05-15T13:38:34.933Z,14.70
2023-05-15T13:41:21.149Z,14.65
2023-05-15T13:44:06.445Z,14.72
2023-05-15T13:46:52.076Z,14.78
2023-05-15T13:49:37.316Z,14.85
2023-05-15T13:52:22.713Z,14.93
2023-05-15T13:55:09.883Z,14.92
2023-05-15T13:57:55.189Z,14.88
2023-05-15T14:00:43.239Z,14.83
2023-05-15T14:03:28.258Z,14.82
2023-05-15T14:06:13.514Z,14.83
2023-05-15T14:08:58.630Z,14.87
2023-05-15T14:11:43.915Z,14.90
2023-05-15T14:14:29.287Z,14.91
2023-05-15T14:17:15.137Z,14.93
2023-05-15T14:20:00.444Z,14.98
2023-05-15T14:22:45.705Z,15.07
2023-05-15T14:25:31.194Z,15.11
2023-05-15T14:28:16.445Z,15.14
2023-05-15T14:31:01.755Z,15.16
2023-05-15T14:33:47.064Z,15.17
2023-05-15T14:36:32.800Z,15.15
2023-05-15T14:39:18.555Z,15.19
2023-05-15T14:42:04.277Z,15.23
2023-05-15T14:44:49.560Z,15.16
2023-05-15T14:47:34.820Z,15.17
2023-05-15T14:50:20.326Z,15.16
2023-05-15T14:53:05.345Z,15.19
2023-05-15T14:55:50.697Z,15.24
2023-05-15T14:58:36.160Z,15.22
2023-05-15T15:01:21.598Z,15.22
2023-05-15T15:04:07.145Z,15.17
2023-05-15T15:06:52.617Z,15.17
2023-05-15T15:09:38.333Z,15.24
2023-05-15T15:12:23.900Z,15.24
2023-05-15T15:15:09.656Z,15.28
2023-05-15T15:17:58.945Z,15.34
2023-05-15T15:20:44.482Z,15.46
2023-05-15T15:23:29.538Z,15.53
2023-05-15T15:26:15.773Z,15.68
2023-05-15T15:29:01.174Z,15.81
2023-05-15T15:31:46.424Z,15.82
2023-05-15T15:34:31.956Z,15.75
2023-05-15T15:37:17.381Z,15.64
2023-05-15T15:40:05.834Z,15.64
2023-05-15T15:42:50.922Z,15.76
2023-05-15T15:45:36.133Z,15.81
2023-05-15T15:48:21.685Z,15.88
2023-05-15T15:51:07.183Z,15.86
2023-05-15T15:53:52.107Z,15.91
2023-05-15T15:56:37.776Z,15.91
2023-05-15T15:59:22.865Z,15.99
2023-05-15T16:02:08.897Z,16.04
2023-05-15T16:04:54.611Z,16.01
2023-05-15T16:07:39.785Z,15.82
2023-05-15T16:10:25.876Z,15.76
2023-05-15T16:13:11.104Z,15.65
2023-05-15T16:15:56.801Z,15.54
2023-05-15T16:18:42.114Z,15.48
2023-05-15T16:21:27.715Z,15.42
2023-05-15T16:24:13.035Z,15.34
2023-05-15T16:26:58.174Z,15.34
2023-05-15T16:29:43.300Z,15.40
2023-05-15T16:32:28.578Z,15.48
2023-05-15T16:35:14.102Z,15.56
2023-05-15T16:37:59.416Z,15.66
2023-05-15T16:40:44.579Z,15.71
2023-05-15T16:43:29.801Z,15.78
2023-05-15T16:46:15.185Z,15.84
2023-05-15T16:49:01.014Z,15.82
2023-05-15T16:51:46.032Z,15.78
2023-05-15T16:54:31.517Z,15.77
2023-05-15T16:57:16.866Z,15.71
2023-05-15T17:00:02.064Z,15.62
2023-05-15T17:02:47.542Z,15.64
2023-05-15T17:05:33.894Z,15.60
2023-05-15T17:08:19.112Z,15.57
2023-05-15T17:11:05.504Z,15.56
2023-05-15T17:13:50.483Z,15.52
2023-05-15T17:16:36.240Z,15.61
2023-05-15T17:19:21.733Z,15.63
2023-05-15T17:22:07.002Z,15.53
2023-05-15T17:24:52.359Z,15.60
2023-05-15T17:27:41.259Z,15.64
2023-05-15T17:30:26.657Z,15.62
2023-05-15T17:33:12.233Z,15.60
2023-05-15T17:35:57.596Z,15.58
2023-05-15T17:38:42.892Z,15.63
2023-05-15T17:41:28.825Z,15.66
2023-05-15T17:44:14.219Z,15.63
2023-05-15T17:47:00.600Z,15.63
2023-05-15T17:49:46.295Z,15.59
2023-05-15T17:52:31.650Z,15.53
2023-05-15T17:55:16.652Z,15.48
2023-05-15T17:58:02.126Z,15.41
2023-05-15T18:00:47.751Z,15.41
2023-05-15T18:03:34.306Z,15.24
2023-05-15T18:06:19.779Z,15.23
2023-05-15T18:09:05.226Z,15.23
2023-05-15T18:11:51.077Z,15.23
2023-05-15T18:14:37.176Z,15.16
2023-05-15T18:17:23.723Z,15.11
2023-05-15T18:20:11.117Z,15.08
2023-05-15T18:22:56.295Z,15.08
2023-05-15T18:25:41.925Z,15.06
2023-05-15T18:28:27.293Z,15.03
2023-05-15T18:31:12.920Z,14.99
2023-05-15T18:33:58.451Z,14.95
2023-05-15T18:36:44.155Z,14.95
2023-05-15T18:39:30.748Z,14.90
2023-05-15T18:42:16.692Z,14.89
2023-05-15T18:45:02.316Z,14.81
2023-05-15T18:47:47.816Z,14.72
2023-05-15T18:50:33.426Z,14.66
2023-05-15T18:53:19.539Z,14.65
2023-05-15T18:56:04.646Z,14.61
2023-05-15T18:58:50.468Z,14.43
2023-05-15T19:01:35.599Z,14.35
2023-05-15T19:04:22.168Z,14.40
2023-05-15T19:07:07.536Z,14.43
2023-05-15T19:09:52.908Z,14.42
2023-05-15T19:12:38.214Z,14.41
2023-05-15T19:15:25.334Z,14.37
2023-05-15T19:18:11.026Z,14.35
2023-05-15T19:20:56.992Z,14.31
2023-05-15T19:23:42.417Z,14.25
2023-05-15T19:26:28.606Z,14.23
2023-05-15T19:29:15.645Z,14.11
2023-05-15T19:32:01.198Z,14.08
2023-05-15T19:34:48.791Z,14.09
2023-05-15T19:37:34.138Z,14.05
2023-05-15T19:40:19.557Z,13.99
2023-05-15T19:43:04.799Z,13.96
2023-05-15T19:45:50.263Z,13.92
2023-05-15T19:48:35.676Z,13.88
2023-05-15T19:51:21.048Z,13.84
2023-05-15T19:54:06.634Z,13.79
2023-05-15T19:56:51.700Z,13.73
2023-05-15T19:59:38.564Z,13.73
2023-05-15T20:02:24.167Z,13.70
2023-05-15T20:05:28.626Z,13.69
2023-05-15T20:08:14.903Z,13.67
2023-05-15T20:11:01.252Z,13.65
2023-05-15T20:13:46.555Z,13.65
2023-05-15T20:16:31.667Z,13.63
2023-05-15T20:19:17.156Z,13.63
2023-05-15T20:22:02.525Z,13.60
2023-05-15T20:24:48.249Z,13.60
2023-05-15T20:27:34.459Z,13.60
2023-05-15T20:30:19.524Z,13.61
2023-05-15T20:33:05.095Z,13.58
2023-05-15T20:35:51.553Z,13.58
2023-05-15T20:38:37.462Z,13.45
2023-05-15T20:41:23.251Z,13.43
2023-05-15T20:44:09.728Z,13.44
2023-05-15T20:46:54.793Z,13.47
2023-05-15T20:49:40.462Z,13.50
2023-05-15T20:52:25.512Z,13.50
2023-05-15T20:55:20.125Z,13.47
2023-05-15T20:58:05.478Z,13.45
2023-05-15T21:00:51.109Z,13.41
2023-05-15T21:03:36.651Z,13.39
2023-05-15T21:06:22.142Z,13.35
2023-05-15T21:09:07.537Z,13.35
2023-05-15T21:11:52.775Z,13.30
2023-05-15T21:14:38.025Z,13.26
2023-05-15T21:17:23.305Z,13.25
2023-05-15T21:20:09.500Z,13.24
2023-05-15T21:22:54.567Z,13.23
2023-05-15T21:25:40.923Z,13.21
2023-05-15T21:28:26.177Z,13.18
2023-05-15T21:31:11.734Z,13.14
2023-05-15T21:33:56.994Z,13.12
2023-05-15T21:36:42.581Z,13.09
2023-05-15T21:39:27.864Z,13.04
2023-05-15T21:42:13.224Z,13.03
2023-05-15T21:44:59.298Z,13.01
2023-05-15T21:47:44.440Z,12.96
2023-05-15T21:50:29.972Z,12.89
2023-05-15T21:53:14.872Z,12.85
2023-05-15T21:56:01.618Z,12.82
2023-05-15T21:58:46.929Z,12.78
2023-05-15T22:01:32.188Z,12.74
2023-05-15T22:04:17.598Z,12.69
2023-05-15T22:07:02.806Z,12.68
2023-05-15T22:09:48.090Z,12.65
2023-05-15T22:12:34.270Z,12.59
2023-05-15T22:15:19.650Z,12.54
2023-05-15T22:18:08.320Z,12.50
2023-05-15T22:20:55.195Z,12.43
2023-05-15T22:23:40.659Z,12.36
2023-05-15T22:26:26.744Z,12.34
2023-05-15T22:29:11.728Z,12.26
2023-05-15T22:31:57.163Z,12.20
2023-05-15T22:34:42.354Z,12.18
2023-05-15T22:37:27.810Z,12.15
2023-05-15T22:40:13.472Z,12.09
2023-05-15T22:42:58.556Z,12.04
2023-05-15T22:45:44.032Z,11.95
2023-05-15T22:48:29.557Z,11.93
2023-05-15T22:51:16.236Z,11.85
2023-05-15T22:54:01.261Z,11.78
2023-05-15T22:56:46.478Z,11.72
2023-05-15T22:59:31.935Z,11.67
2023-05-15T23:02:17.264Z,11.59
2023-05-15T23:05:02.400Z,11.56
2023-05-15T23:07:47.980Z,11.54
2023-05-15T23:10:32.993Z,11.50
2023-05-15T23:13:18.254Z,11.43
2023-05-15T23:16:03.731Z,11.36
2023-05-15T23:18:49.009Z,11.30
2023-05-15T23:21:34.067Z,11.27
2023-05-15T23:24:19.426Z,11.28
2023-05-15T23:27:05.682Z,11.23
2023-05-15T23:29:51.051Z,11.18
2023-05-15T23:32:36.524Z,11.11
2023-05-15T23:35:21.788Z,11.04
2023-05-15T23:38:07.140Z,11.03
2023-05-15T23:40:53.040Z,10.97
2023-05-15T23:43:38.086Z,10.91
2023-05-15T23:46:23.576Z,10.89
2023-05-15T23:49:09.336Z,10.90
2023-05-15T23:51:54.658Z,10.73
2023-05-15T23:54:40.295Z,10.73
2023-05-15T23:57:25.636Z,10.76
